Time;durP1;ratioP1;P1;durP2;ratioP2;P2;SDS_P1;SDS_P2;PMS_P1;PMS_P2;Temp;Humidity;BMP_temperature;BMP_pressure;BME280_temperature;BME280_humidity;BME280_pressure;Samples;Min_cycle;Max_cycle;Signal;HPM_P1;HPM_P2
2021/09/22 00:01:48;;;;;;;4.40;2.42;;;19.30;65.50;;;;;;10413479;28;20084;-61
2021/09/22 00:06:49;;;;;;;3.40;2.13;;;19.30;65.60;;;;;;10412956;28;20034;-61
2021/09/22 00:11:50;;;;;;;3.10;2.03;;;19.30;65.60;;;;;;10414156;28;20492;-60
2021/09/22 00:16:51;;;;;;;2.75;1.92;;;19.30;65.60;;;;;;10413132;28;20033;-60
2021/09/22 00:21:52;;;;;;;4.65;1.85;;;19.30;65.50;;;;;;10413547;28;20033;-60
2021/09/22 00:26:52;;;;;;;2.92;1.83;;;19.30;65.50;;;;;;10412517;28;20466;-61
2021/09/22 00:31:53;;;;;;;3.92;2.58;;;19.20;65.50;;;;;;10406149;28;20393;-60
2021/09/22 00:36:54;;;;;;;3.13;2.15;;;19.20;65.40;;;;;;10412579;28;20504;-61
2021/09/22 00:41:54;;;;;;;3.55;2.33;;;19.20;65.40;;;;;;10413620;28;20030;-61
2021/09/22 00:46:55;;;;;;;3.83;2.50;;;19.20;65.40;;;;;;10411962;28;20051;-60
2021/09/22 00:51:56;;;;;;;2.90;2.25;;;19.20;65.30;;;;;;10410098;28;20115;-61
2021/09/22 00:56:57;;;;;;;3.30;2.05;;;19.20;65.30;;;;;;10412293;28;20096;-60
2021/09/22 01:01:59;;;;;;;3.30;2.13;;;19.20;65.30;;;;;;10418947;28;20025;-61
2021/09/22 01:07:00;;;;;;;2.92;2.30;;;19.20;65.20;;;;;;10419959;28;20112;-61
2021/09/22 01:12:00;;;;;;;3.47;2.10;;;19.20;65.10;;;;;;10420733;28;20120;-61
2021/09/22 01:17:01;;;;;;;3.35;2.47;;;19.20;65.10;;;;;;10419781;28;20044;-61
2021/09/22 01:22:02;;;;;;;3.25;2.50;;;19.10;64.80;;;;;;10420490;28;20030;-60
2021/09/22 01:27:03;;;;;;;2.83;2.28;;;19.20;64.90;;;;;;10419391;28;20069;-61
2021/09/22 01:32:04;;;;;;;3.65;2.40;;;19.10;64.70;;;;;;10419170;28;20079;-61
2021/09/22 01:37:05;;;;;;;6.07;2.60;;;19.10;64.80;;;;;;10420095;28;20037;-61
2021/09/22 01:42:06;;;;;;;5.68;2.67;;;19.10;64.70;;;;;;10418589;28;20038;-60
2021/09/22 01:47:06;;;;;;;4.05;2.75;;;19.10;64.70;;;;;;10417035;28;20136;-60
2021/09/22 01:52:07;;;;;;;3.47;2.22;;;19.10;64.70;;;;;;10419580;28;20128;-61
2021/09/22 01:57:09;;;;;;;2.38;1.77;;;19.10;64.70;;;;;;10418229;28;20478;-60
2021/09/22 02:02:10;;;;;;;2.80;2.00;;;19.10;64.80;;;;;;10419222;28;20357;-62
2021/09/22 02:07:11;;;;;;;3.38;2.35;;;19.10;64.90;;;;;;10417696;28;20033;-61
2021/09/22 02:12:11;;;;;;;5.57;2.30;;;19.10;64.90;;;;;;10417252;28;20634;-61
2021/09/22 02:17:12;;;;;;;3.90;2.15;;;19.10;64.70;;;;;;10417306;28;20041;-61
2021/09/22 02:22:13;;;;;;;2.45;1.75;;;19.10;64.60;;;;;;10417480;28;20389;-60
2021/09/22 02:27:18;;;;;;;3.33;2.03;;;19.00;64.50;;;;;;10416986;28;20505;-61
2021/09/22 02:32:19;;;;;;;3.92;2.40;;;19.10;64.40;;;;;;10414495;28;20025;-60
2021/09/22 02:37:19;;;;;;;3.63;2.42;;;19.00;64.50;;;;;;10416674;28;20041;-61
2021/09/22 02:42:21;;;;;;;3.53;1.92;;;19.00;64.30;;;;;;10417873;28;20036;-60
2021/09/22 02:47:23;;;;;;;2.90;2.03;;;19.00;64.30;;;;;;10416114;28;20064;-60
2021/09/22 02:52:24;;;;;;;2.90;2.03;;;19.00;64.30;;;;;;10417287;28;20462;-61
2021/09/22 02:57:25;;;;;;;3.22;2.10;;;19.00;64.30;;;;;;10416835;28;20025;-60
2021/09/22 03:02:25;;;;;;;2.47;1.90;;;19.00;64.10;;;;;;10390418;28;20068;-61
2021/09/22 03:07:26;;;;;;;3.00;2.10;;;19.00;64.30;;;;;;10415685;28;20148;-61
2021/09/22 03:12:27;;;;;;;3.45;2.28;;;19.00;64.20;;;;;;10415090;28;20421;-60
2021/09/22 03:17:27;;;;;;;3.78;2.50;;;19.00;64.30;;;;;;10416330;28;20108;-60
2021/09/22 03:22:28;;;;;;;3.72;2.30;;;19.00;64.30;;;;;;10415217;28;20079;-61
2021/09/22 03:27:29;;;;;;;3.90;2.50;;;18.90;64.20;;;;;;10415030;28;20064;-61
2021/09/22 03:32:29;;;;;;;3.60;2.55;;;18.90;64.30;;;;;;10415826;28;20390;-61
2021/09/22 03:37:30;;;;;;;4.65;2.47;;;18.90;64.30;;;;;;10397793;28;20120;-61
2021/09/22 03:42:31;;;;;;;3.42;2.17;;;18.90;64.20;;;;;;10414585;28;20052;-61
2021/09/22 03:47:32;;;;;;;3.95;2.85;;;18.90;64.20;;;;;;10415523;28;20049;-61
2021/09/22 03:52:33;;;;;;;4.22;2.35;;;18.90;64.20;;;;;;10415353;28;20037;-60
2021/09/22 03:57:33;;;;;;;4.65;2.50;;;18.90;64.10;;;;;;10415064;28;20076;-61
2021/09/22 04:02:34;;;;;;;2.95;2.25;;;18.90;64.00;;;;;;10414971;28;20033;-61
2021/09/22 04:07:34;;;;;;;3.65;2.40;;;18.90;64.10;;;;;;10410417;28;20029;-61
2021/09/22 04:12:35;;;;;;;3.50;2.35;;;18.90;64.00;;;;;;10408410;28;20065;-61
2021/09/22 04:17:36;;;;;;;4.40;2.55;;;18.90;63.80;;;;;;10407598;28;20029;-60
2021/09/22 04:22:39;;;;;;;3.85;3.00;;;18.90;64.00;;;;;;10414473;28;20117;-61
2021/09/22 04:27:40;;;;;;;4.00;3.20;;;18.90;64.00;;;;;;10412739;28;20421;-61
2021/09/22 04:32:41;;;;;;;3.40;2.40;;;18.80;63.90;;;;;;10411964;28;20044;-61
2021/09/22 04:37:41;;;;;;;3.40;2.50;;;18.80;64.00;;;;;;10413013;28;20118;-60
2021/09/22 04:42:42;;;;;;;6.63;3.88;;;18.80;64.00;;;;;;10413827;28;20037;-61
2021/09/22 04:47:43;;;;;;;9.15;3.47;;;18.90;64.40;;;;;;10412538;28;20580;-64
2021/09/22 04:52:44;;;;;;;7.93;3.50;;;18.90;64.10;;;;;;10413502;28;20037;-61
2021/09/22 04:57:44;;;;;;;6.53;3.70;;;18.90;64.70;;;;;;10412204;28;20033;-58
2021/09/22 05:02:45;;;;;;;10.65;4.28;;;18.90;65.10;;;;;;10413256;28;20025;-61
2021/09/22 05:07:46;;;;;;;9.88;3.45;;;18.90;65.50;;;;;;10412250;28;20033;-60
2021/09/22 05:12:47;;;;;;;5.18;3.42;;;18.90;65.40;;;;;;10413056;28;20123;-61
2021/09/22 05:17:47;;;;;;;8.48;3.83;;;18.90;65.20;;;;;;10395110;28;20026;-60
2021/09/22 05:22:48;;;;;;;8.40;3.63;;;19.00;65.90;;;;;;10410602;28;20056;-59
2021/09/22 05:27:49;;;;;;;7.10;3.83;;;19.00;65.10;;;;;;10410200;28;20100;-60
2021/09/22 05:32:49;;;;;;;11.73;4.20;;;19.00;65.00;;;;;;10394605;28;20112;-59
2021/09/22 05:37:50;;;;;;;6.28;3.40;;;18.90;64.90;;;;;;10411217;28;20037;-60
2021/09/22 05:42:52;;;;;;;11.95;4.43;;;18.90;64.70;;;;;;10411815;28;20511;-60
2021/09/22 05:47:52;;;;;;;10.75;4.35;;;18.90;64.50;;;;;;10411995;28;20095;-60
2021/09/22 05:52:53;;;;;;;11.38;4.50;;;18.90;64.70;;;;;;10407490;28;20037;-61
2021/09/22 05:57:54;;;;;;;14.48;4.57;;;18.90;65.10;;;;;;10382024;28;20340;-59
2021/09/22 06:02:55;;;;;;;17.85;5.45;;;18.90;65.10;;;;;;10415779;28;20083;-59
2021/09/22 06:07:55;;;;;;;12.75;5.15;;;19.00;64.70;;;;;;10434992;28;20091;-59
2021/09/22 06:12:56;;;;;;;17.70;4.75;;;18.90;64.60;;;;;;10417613;28;20037;-59
2021/09/22 06:17:57;;;;;;;7.68;4.05;;;18.90;64.70;;;;;;10417727;28;20034;-59
2021/09/22 06:22:58;;;;;;;11.43;4.88;;;18.90;65.00;;;;;;10417764;28;20052;-59
2021/09/22 06:27:59;;;;;;;9.27;4.75;;;18.90;64.90;;;;;;10417579;28;20115;-59
2021/09/22 06:33:00;;;;;;;9.02;4.35;;;18.90;64.80;;;;;;10416889;28;20494;-60
2021/09/22 06:38:01;;;;;;;10.07;4.60;;;18.90;64.80;;;;;;10416933;28;20092;-59
2021/09/22 06:43:04;;;;;;;10.50;4.78;;;18.80;64.70;;;;;;10416476;28;20026;-60
2021/09/22 06:48:05;;;;;;;6.10;3.72;;;18.80;64.70;;;;;;10414631;28;20394;-61
2021/09/22 06:53:05;;;;;;;6.90;4.22;;;18.80;64.50;;;;;;10414268;28;20045;-59
2021/09/22 06:58:06;;;;;;;13.00;4.65;;;18.80;64.80;;;;;;10371231;28;20037;-59
2021/09/22 07:03:11;;;;;;;17.55;5.25;;;18.80;64.80;;;;;;10429929;28;20032;-59
2021/09/22 07:08:12;;;;;;;17.13;5.78;;;18.80;64.60;;;;;;10415126;28;20560;-60
2021/09/22 07:13:13;;;;;;;13.45;5.45;;;18.90;64.70;;;;;;10413789;28;20044;-59
2021/09/22 07:18:16;;;;;;;14.05;5.15;;;18.90;64.60;;;;;;10413499;28;20512;-58
2021/09/22 07:23:17;;;;;;;15.60;6.07;;;18.90;64.80;;;;;;10413968;28;20087;-61
2021/09/22 07:28:17;;;;;;;15.20;6.40;;;18.90;65.20;;;;;;10412338;28;20087;-60
2021/09/22 07:33:21;;;;;;;15.50;6.88;;;18.90;65.70;;;;;;10413392;28;20088;-60
2021/09/22 07:38:22;;;;;;;11.85;5.40;;;18.90;65.00;;;;;;10412683;28;20259;-61
2021/09/22 07:43:23;;;;;;;15.75;6.13;;;18.90;65.10;;;;;;10411756;28;20025;-61
2021/09/22 07:48:23;;;;;;;15.02;6.20;;;18.90;65.30;;;;;;10413045;28;20049;-68
2021/09/22 07:53:24;;;;;;;17.73;6.10;;;18.90;65.30;;;;;;10404779;28;20029;-69
2021/09/22 07:58:25;;;;;;;14.20;5.57;;;18.90;65.30;;;;;;10410168;28;20037;-68
2021/09/22 08:03:25;;;;;;;11.55;6.03;;;18.90;65.20;;;;;;10396806;28;20350;-69
2021/09/22 08:08:26;;;;;;;11.18;6.88;;;18.90;65.00;;;;;;10414164;28;20462;-69
2021/09/22 08:13:27;;;;;;;13.82;6.70;;;18.90;64.90;;;;;;10412292;28;20069;-69
2021/09/22 08:18:27;;;;;;;12.60;7.15;;;18.90;65.00;;;;;;10415582;28;20041;-66
2021/09/22 08:23:28;;;;;;;11.60;5.55;;;18.90;64.90;;;;;;10394889;28;20433;-67
2021/09/22 08:29:55;;;;;;;23.98;6.38;;;18.90;67.00;;;;;;10574833;27;20392;-54
2021/09/22 08:34:56;;;;;;;10.82;6.00;;;18.90;67.00;;;;;;10531707;28;20481;-54
2021/09/22 08:39:57;;;;;;;11.27;5.47;;;18.80;66.40;;;;;;10531478;28;20021;-53
2021/09/22 08:44:58;;;;;;;9.75;5.95;;;18.70;66.50;;;;;;10531784;28;20040;-54
2021/09/22 08:49:59;;;;;;;10.38;6.50;;;18.70;66.50;;;;;;10531399;28;20028;-54
2021/09/22 08:55:00;;;;;;;7.68;5.20;;;18.70;67.00;;;;;;10530184;28;20036;-53
2021/09/22 09:00:01;;;;;;;10.43;5.90;;;18.70;66.40;;;;;;10530474;28;20048;-55
2021/09/22 09:05:11;;;;;;;7.80;5.03;;;18.70;66.40;;;;;;10530299;28;20436;-53
2021/09/22 09:10:12;;;;;;;10.82;5.68;;;18.80;66.50;;;;;;10524934;28;20028;-55
2021/09/22 09:15:14;;;;;;;14.30;6.03;;;18.80;66.50;;;;;;10530249;28;20462;-54
2021/09/22 09:20:22;;;;;;;13.48;5.22;;;18.80;66.40;;;;;;10529976;28;20037;-54
2021/09/22 09:25:26;;;;;;;7.77;5.47;;;18.80;66.50;;;;;;10527395;28;20067;-55
2021/09/22 09:30:27;;;;;;;8.65;5.43;;;18.90;72.60;;;;;;10529495;28;20073;-55
2021/09/22 09:35:28;;;;;;;6.20;4.70;;;18.90;67.20;;;;;;10529669;28;20103;-55
2021/09/22 09:40:35;;;;;;;7.88;4.50;;;18.90;67.70;;;;;;10498416;28;20123;-54
2021/09/22 09:45:45;;;;;;;8.35;4.93;;;18.90;67.80;;;;;;10491567;28;20480;-56
2021/09/22 09:50:59;;;;;;;6.40;4.53;;;18.90;68.20;;;;;;10498638;28;20089;-54
2021/09/22 09:56:04;;;;;;;8.13;4.93;;;19.00;68.50;;;;;;10493593;28;20033;-55
2021/09/22 10:01:04;;;;;;;7.03;4.68;;;19.00;68.50;;;;;;10496910;28;20139;-54
2021/09/22 10:06:07;;;;;;;9.85;6.28;;;19.00;68.30;;;;;;10498213;28;20107;-54
2021/09/22 10:11:08;;;;;;;8.07;6.28;;;19.00;68.00;;;;;;10498080;28;20031;-54
2021/09/22 10:16:08;;;;;;;12.75;7.20;;;19.00;67.70;;;;;;10498308;28;20534;-51
2021/09/22 10:21:09;;;;;;;10.68;7.28;;;19.00;67.60;;;;;;10500440;28;20028;-56
2021/09/22 10:26:11;;;;;;;15.90;8.98;;;19.10;67.30;;;;;;10498335;28;20040;-51
2021/09/22 10:31:21;;;;;;;9.85;7.35;;;19.10;67.20;;;;;;10498777;28;20096;-51
2021/09/22 10:36:35;;;;;;;;;;;19.10;67.10;;;;;;10500087;28;20116;-53
2021/09/22 10:41:44;;;;;;;12.05;8.27;;;19.20;67.00;;;;;;10499718;28;20292;-52
2021/09/22 10:46:45;;;;;;;;;;;19.20;66.90;;;;;;10500079;28;20028;-53
2021/09/22 10:51:48;;;;;;;12.88;9.52;;;19.20;66.90;;;;;;10488136;28;19912;-54
2021/09/22 10:56:57;;;;;;;14.05;9.05;;;19.20;66.80;;;;;;10498496;28;20435;-55
2021/09/22 11:01:59;;;;;;;12.85;7.95;;;19.30;66.70;;;;;;10499060;28;20024;-54
2021/09/22 11:07:00;;;;;;;11.80;7.85;;;19.30;66.70;;;;;;10497284;28;20028;-54
2021/09/22 11:12:03;;;;;;;13.40;9.43;;;19.30;66.80;;;;;;10498745;28;20032;-56
2021/09/22 11:17:11;;;;;;;12.65;8.73;;;19.30;66.90;;;;;;10498886;28;20032;-54
2021/09/22 11:22:19;;;;;;;12.30;8.55;;;19.30;66.90;;;;;;10499204;28;20036;-53
2021/09/22 11:27:23;;;;;;;14.20;8.20;;;19.40;67.00;;;;;;10498032;28;20044;-56
2021/09/22 11:32:41;;;;;;;13.45;8.88;;;19.40;66.90;;;;;;10497494;28;20035;-55
2021/09/22 11:37:48;;;;;;;11.95;8.05;;;19.40;66.60;;;;;;10497763;28;20119;-53
2021/09/22 11:42:59;;;;;;;11.13;7.53;;;19.50;66.70;;;;;;10497498;28;20105;-53
2021/09/22 11:47:59;;;;;;;13.45;8.07;;;19.50;66.50;;;;;;10496544;28;20068;-56
2021/09/22 11:53:00;;;;;;;12.80;6.75;;;19.50;66.30;;;;;;10486259;28;20444;-56
2021/09/22 11:58:11;;;;;;;10.82;7.05;;;19.60;66.50;;;;;;10496562;28;20373;-55
2021/09/22 12:03:13;;;;;;;10.50;5.72;;;19.60;66.60;;;;;;10495660;28;20040;-55
2021/09/22 12:08:14;;;;;;;8.43;5.72;;;19.60;66.60;;;;;;10492175;28;20034;-54
2021/09/22 12:13:15;;;;;;;10.15;5.82;;;19.60;66.70;;;;;;10494992;28;20027;-56
2021/09/22 12:18:16;;;;;;;7.97;4.55;;;19.60;66.70;;;;;;10495958;28;20075;-56
2021/09/22 12:23:27;;;;;;;7.78;4.75;;;19.60;66.70;;;;;;10496081;28;20090;-54
2021/09/22 12:28:28;;;;;;;7.25;4.40;;;19.60;66.70;;;;;;10493440;28;20111;-56
2021/09/22 12:33:29;;;;;;;6.43;3.95;;;19.60;66.70;;;;;;10494402;28;20029;-56
2021/09/22 12:38:29;;;;;;;8.40;3.83;;;19.70;66.70;;;;;;10495807;28;20036;-56
2021/09/22 12:43:31;;;;;;;8.13;3.67;;;19.70;66.80;;;;;;10494563;28;20469;-57
2021/09/22 12:48:31;;;;;;;7.97;4.20;;;19.70;66.70;;;;;;10493949;28;20032;-57
2021/09/22 12:53:32;;;;;;;5.10;3.92;;;19.70;66.90;;;;;;10494140;28;20507;-56
2021/09/22 12:58:33;;;;;;;6.47;3.58;;;19.70;66.90;;;;;;10495341;28;20120;-57
2021/09/22 13:03:44;;;;;;;6.03;3.63;;;19.70;66.90;;;;;;10493985;28;20516;-60
2021/09/22 13:09:00;;;;;;;5.93;3.55;;;19.70;66.90;;;;;;10494172;28;20104;-57
2021/09/22 13:14:14;;;;;;;4.60;3.13;;;19.70;66.70;;;;;;10499208;28;20024;-57
2021/09/22 13:19:15;;;;;;;4.57;3.55;;;19.70;66.70;;;;;;10506446;28;20040;-57
2021/09/22 13:24:20;;;;;;;4.55;3.47;;;19.70;66.70;;;;;;10502085;28;20029;-57
2021/09/22 13:29:21;;;;;;;5.22;3.70;;;19.70;66.70;;;;;;10501274;28;20045;-57
2021/09/22 13:34:27;;;;;;;4.93;3.53;;;19.70;66.70;;;;;;10489735;28;20029;-57
2021/09/22 13:39:29;;;;;;;4.93;3.05;;;19.70;66.70;;;;;;10502041;28;20040;-57
2021/09/22 13:44:30;;;;;;;6.80;2.67;;;19.70;66.70;;;;;;10500264;28;20031;-57
2021/09/22 13:49:32;;;;;;;5.18;3.22;;;19.70;66.60;;;;;;10501314;28;20087;-57
2021/09/22 13:54:32;;;;;;;9.10;3.55;;;19.70;66.60;;;;;;10499379;28;20031;-58
2021/09/22 13:59:33;;;;;;;5.45;3.63;;;19.70;66.50;;;;;;10501288;28;20445;-57
2021/09/22 14:04:34;;;;;;;8.77;4.03;;;19.70;66.50;;;;;;10495048;28;20099;-56
2021/09/22 14:09:35;;;;;;;9.23;4.47;;;19.70;66.50;;;;;;10494335;28;20032;-57
2021/09/22 14:14:35;;;;;;;10.50;4.30;;;19.70;66.60;;;;;;10500831;28;20029;-57
2021/09/22 14:19:36;;;;;;;6.28;4.70;;;19.70;66.60;;;;;;10501624;28;20380;-56
2021/09/22 14:24:37;;;;;;;17.70;6.07;;;19.70;66.50;;;;;;10498319;28;20524;-56
2021/09/22 14:29:37;;;;;;;15.02;5.88;;;19.70;66.90;;;;;;10497974;28;20045;-54
2021/09/22 14:34:38;;;;;;;21.25;6.32;;;19.70;67.20;;;;;;10498669;28;20028;-55
2021/09/22 14:39:39;;;;;;;16.20;6.72;;;19.80;67.10;;;;;;10496936;28;20111;-56
2021/09/22 14:44:40;;;;;;;19.52;6.28;;;19.80;67.40;;;;;;10487667;28;20052;-54
2021/09/22 14:49:40;;;;;;;18.30;5.63;;;19.80;67.60;;;;;;10477104;28;20029;-51
2021/09/22 14:54:42;;;;;;;16.23;6.35;;;19.80;67.70;;;;;;10487417;28;20040;-54
2021/09/22 14:59:43;;;;;;;15.02;5.88;;;19.80;68.00;;;;;;10497703;28;20040;-53
2021/09/22 15:04:43;;;;;;;13.45;5.05;;;19.80;67.90;;;;;;10497563;28;20029;-50
2021/09/22 15:09:44;;;;;;;8.95;5.72;;;19.80;68.00;;;;;;10488306;28;20060;-52
2021/09/22 15:14:45;;;;;;;8.63;5.50;;;19.80;68.10;;;;;;10484554;28;20078;-54
2021/09/22 15:19:45;;;;;;;12.75;6.65;;;19.80;68.00;;;;;;10499900;28;20029;-54
2021/09/22 15:24:46;;;;;;;13.05;5.13;;;19.80;68.00;;;;;;10489917;28;20024;-49
2021/09/22 15:29:53;;;;;;;7.57;5.15;;;19.80;68.50;;;;;;10496980;28;20123;-53
2021/09/22 15:34:55;;;;;;;7.32;5.28;;;19.90;69.10;;;;;;10489329;28;20021;-53
2021/09/22 15:39:56;;;;;;;9.80;5.22;;;20.00;68.20;;;;;;10496684;28;20090;-50
2021/09/22 15:44:58;;;;;;;9.93;5.22;;;20.10;68.20;;;;;;10486241;28;20021;-52
2021/09/22 15:49:59;;;;;;;9.30;4.88;;;20.10;67.90;;;;;;10471725;28;20366;-51
2021/09/22 15:55:00;;;;;;;7.57;5.30;;;20.20;67.60;;;;;;10490816;28;20043;-49
2021/09/22 16:00:03;;;;;;;9.00;4.63;;;20.20;67.60;;;;;;10488826;28;20163;-52
2021/09/22 16:05:07;;;;;;;11.15;5.43;;;20.20;67.30;;;;;;10489624;28;20086;-48
2021/09/22 16:10:08;;;;;;;7.50;4.57;;;20.20;67.20;;;;;;10486655;28;20046;-55
2021/09/22 16:15:11;;;;;;;9.82;6.13;;;20.20;67.20;;;;;;10490247;28;20032;-50
2021/09/22 16:20:22;;;;;;;7.28;5.20;;;20.30;67.90;;;;;;10492979;28;20036;-51
2021/09/22 16:25:23;;;;;;;6.65;5.15;;;20.30;69.00;;;;;;10485636;28;20051;-54
2021/09/22 16:30:23;;;;;;;14.77;5.63;;;20.40;69.50;;;;;;10496192;28;21422;-53
2021/09/22 16:35:24;;;;;;;8.30;5.32;;;20.50;69.80;;;;;;10497219;28;20020;-54
2021/09/22 16:40:25;;;;;;;8.73;5.63;;;20.50;70.40;;;;;;10496606;28;20054;-48
2021/09/22 16:45:25;;;;;;;8.95;5.43;;;20.40;71.70;;;;;;10494213;28;20024;-54
2021/09/22 16:50:26;;;;;;;10.88;6.07;;;20.50;71.90;;;;;;10500493;28;20028;-56
2021/09/22 16:55:27;;;;;;;9.75;6.28;;;20.60;71.50;;;;;;10503069;28;20031;-53
2021/09/22 17:00:28;;;;;;;13.82;5.65;;;20.50;71.60;;;;;;10504356;28;20103;-51
2021/09/22 17:05:29;;;;;;;10.95;5.53;;;20.40;71.40;;;;;;10503996;28;20029;-48
2021/09/22 17:10:36;;;;;;;10.68;5.72;;;20.30;71.70;;;;;;10490574;28;20112;-47
2021/09/22 17:15:37;;;;;;;14.05;6.25;;;20.30;71.20;;;;;;10503836;28;20028;-49
2021/09/22 17:20:38;;;;;;;8.88;4.93;;;20.30;70.80;;;;;;10506780;28;20036;-50
2021/09/22 17:25:39;;;;;;;9.50;5.30;;;20.20;70.60;;;;;;10502275;28;20128;-47
2021/09/22 17:30:39;;;;;;;16.25;5.30;;;20.20;70.40;;;;;;10502855;28;20059;-51
2021/09/22 17:35:40;;;;;;;10.98;5.75;;;20.30;70.20;;;;;;10501410;28;20166;-51
2021/09/22 17:40:42;;;;;;;8.48;5.65;;;20.30;70.30;;;;;;10482477;28;20066;-51
2021/09/22 17:45:43;;;;;;;12.70;5.82;;;20.30;70.30;;;;;;10499955;28;20032;-49
2021/09/22 17:50:49;;;;;;;9.85;5.25;;;20.30;70.20;;;;;;10500775;28;20036;-48
2021/09/22 17:55:51;;;;;;;10.70;4.90;;;20.20;70.30;;;;;;10497750;28;20025;-53
2021/09/22 18:00:54;;;;;;;11.23;5.03;;;20.20;70.50;;;;;;10516242;28;20537;-52
2021/09/22 18:05:59;;;;;;;9.10;4.55;;;20.20;70.50;;;;;;10490517;28;20036;-52
2021/09/22 18:10:59;;;;;;;10.52;4.60;;;20.10;70.50;;;;;;10499664;28;20074;-51
2021/09/22 18:16:00;;;;;;;6.78;4.05;;;20.10;71.40;;;;;;10500859;28;20027;-51
2021/09/22 18:21:02;;;;;;;11.38;5.22;;;20.10;70.60;;;;;;10498921;28;20458;-49
2021/09/22 18:26:03;;;;;;;8.65;4.70;;;20.10;70.60;;;;;;10497564;28;20115;-53
2021/09/22 18:31:06;;;;;;;9.07;4.18;;;20.10;70.70;;;;;;10498935;28;20052;-52
2021/09/22 18:36:07;;;;;;;6.78;3.88;;;20.10;70.70;;;;;;10507108;28;20159;-51
2021/09/22 18:41:08;;;;;;;8.82;4.85;;;20.10;70.60;;;;;;10499684;28;20107;-50
2021/09/22 18:46:08;;;;;;;8.32;3.75;;;20.10;70.40;;;;;;10498318;28;20119;-51
2021/09/22 18:51:09;;;;;;;7.18;4.35;;;20.00;70.20;;;;;;10499033;28;20036;-51
2021/09/22 18:56:10;;;;;;;7.90;4.38;;;20.00;70.40;;;;;;10492305;28;20028;-49
2021/09/22 19:01:11;;;;;;;6.90;4.00;;;20.00;70.50;;;;;;10497748;28;20033;-46
2021/09/22 19:06:12;;;;;;;11.75;5.97;;;19.90;70.30;;;;;;10495584;28;20036;-48
2021/09/22 19:11:14;;;;;;;9.02;4.18;;;19.90;70.30;;;;;;10493499;28;20570;-49
2021/09/22 19:16:15;;;;;;;5.28;3.45;;;19.90;70.20;;;;;;10495564;28;20028;-49
2021/09/22 19:21:16;;;;;;;4.90;3.40;;;19.90;70.10;;;;;;10496746;28;20025;-50
2021/09/22 19:26:16;;;;;;;8.32;4.22;;;19.80;70.10;;;;;;10494915;28;20048;-51
2021/09/22 19:31:19;;;;;;;5.68;3.50;;;19.90;70.10;;;;;;10480418;28;20469;-51
2021/09/22 19:36:20;;;;;;;5.20;3.83;;;19.90;70.00;;;;;;10497158;28;20031;-51
2021/09/22 19:41:20;;;;;;;4.63;3.80;;;19.90;69.70;;;;;;10494649;28;20115;-52
2021/09/22 19:46:22;;;;;;;5.13;3.80;;;19.80;69.40;;;;;;10494230;28;20046;-47
2021/09/22 19:51:25;;;;;;;5.47;3.58;;;19.80;69.30;;;;;;10496591;28;20029;-51
2021/09/22 19:56:26;;;;;;;5.32;3.88;;;19.80;69.10;;;;;;10495143;28;20029;-50
2021/09/22 20:01:27;;;;;;;5.75;3.88;;;19.80;69.20;;;;;;10496468;28;20020;-48
2021/09/22 20:06:28;;;;;;;5.57;3.45;;;19.80;69.20;;;;;;10495542;28;20029;-52
2021/09/22 20:11:28;;;;;;;6.55;4.45;;;19.80;69.20;;;;;;10497430;28;20027;-48
2021/09/22 20:16:30;;;;;;;5.68;3.35;;;19.80;69.20;;;;;;10496826;28;20031;-50
2021/09/22 20:21:31;;;;;;;4.97;3.65;;;19.70;69.10;;;;;;10500855;28;20346;-46
2021/09/22 20:26:33;;;;;;;5.28;3.58;;;19.70;69.10;;;;;;10496245;28;20091;-48
2021/09/22 20:31:33;;;;;;;5.97;3.85;;;19.70;69.10;;;;;;10496468;28;20027;-47
2021/09/22 20:36:34;;;;;;;5.53;3.75;;;19.70;68.90;;;;;;10483489;28;20059;-48
2021/09/22 20:41:36;;;;;;;4.40;3.92;;;19.70;68.90;;;;;;10495411;28;20417;-49
2021/09/22 20:46:36;;;;;;;4.38;3.65;;;19.70;68.90;;;;;;10495946;28;20095;-48
2021/09/22 20:51:37;;;;;;;5.65;4.25;;;19.70;68.80;;;;;;10492885;28;20112;-51
2021/09/22 20:56:38;;;;;;;4.25;3.33;;;19.60;68.80;;;;;;10495073;28;20028;-49
2021/09/22 21:01:39;;;;;;;4.78;3.17;;;19.60;68.80;;;;;;10496055;28;20039;-49
2021/09/22 21:06:39;;;;;;;6.25;3.22;;;19.60;68.90;;;;;;10495482;28;20094;-51
2021/09/22 21:11:40;;;;;;;4.25;2.80;;;19.60;68.90;;;;;;10495555;28;20032;-47
2021/09/22 21:16:41;;;;;;;5.25;3.60;;;19.60;68.80;;;;;;10495800;28;20029;-50
2021/09/22 21:21:42;;;;;;;5.43;3.25;;;19.60;68.70;;;;;;10496235;28;20043;-48
2021/09/22 21:26:43;;;;;;;3.63;3.20;;;19.60;68.80;;;;;;10493913;28;20396;-47
2021/09/22 21:31:43;;;;;;;5.05;3.40;;;19.50;68.70;;;;;;10495152;28;20021;-46
2021/09/22 21:36:44;;;;;;;3.63;2.97;;;19.50;68.60;;;;;;10500963;28;20039;-46
2021/09/22 21:41:45;;;;;;;3.80;3.30;;;19.60;68.60;;;;;;10501471;28;20028;-46
2021/09/22 21:46:45;;;;;;;5.15;3.72;;;19.50;68.60;;;;;;10502373;28;20035;-47
2021/09/22 21:51:46;;;;;;;4.70;3.47;;;19.50;68.70;;;;;;10501980;28;20039;-48
2021/09/22 21:56:47;;;;;;;4.57;3.22;;;19.50;68.70;;;;;;10501579;28;20180;-47
2021/09/22 22:01:48;;;;;;;4.22;2.92;;;19.50;68.50;;;;;;10500474;28;20036;-51
2021/09/22 22:06:49;;;;;;;6.63;4.40;;;19.50;68.60;;;;;;10501984;28;20036;-52
2021/09/22 22:11:49;;;;;;;4.38;3.95;;;19.50;68.50;;;;;;10500387;28;20103;-48
2021/09/22 22:16:50;;;;;;;5.90;4.18;;;19.40;68.40;;;;;;10501254;28;20047;-50
2021/09/22 22:21:51;;;;;;;4.47;3.42;;;19.50;68.60;;;;;;10504276;28;20028;-46
2021/09/22 22:26:51;;;;;;;4.70;4.18;;;19.40;68.50;;;;;;10500936;28;20057;-48
2021/09/22 22:31:52;;;;;;;5.47;3.95;;;19.40;68.50;;;;;;10501047;28;20111;-47
2021/09/22 22:36:56;;;;;;;4.32;3.67;;;19.40;68.40;;;;;;10500425;28;20043;-48
2021/09/22 22:41:57;;;;;;;6.22;4.28;;;19.40;68.40;;;;;;10500378;28;20464;-47
2021/09/22 22:46:58;;;;;;;5.53;3.83;;;19.40;68.30;;;;;;10500308;28;20036;-47
2021/09/22 22:51:58;;;;;;;5.97;4.50;;;19.40;68.30;;;;;;10499618;28;20028;-46
2021/09/22 22:56:59;;;;;;;4.90;4.05;;;19.40;68.20;;;;;;10497841;28;20060;-47
2021/09/22 23:02:00;;;;;;;5.35;3.90;;;19.40;68.20;;;;;;10499894;28;20027;-46
2021/09/22 23:07:01;;;;;;;7.93;4.75;;;19.30;68.10;;;;;;10499591;28;20027;-46
2021/09/22 23:12:02;;;;;;;6.47;4.68;;;19.30;68.20;;;;;;10499208;28;20064;-47
2021/09/22 23:17:19;;;;;;;8.38;4.70;;;19.30;68.10;;;;;;10498658;28;20032;-47
2021/09/22 23:27:39;;;;;;;5.75;4.22;;;19.30;68.10;;;;;;10499035;28;20423;-46
2021/09/22 23:32:39;;;;;;;5.57;4.22;;;19.30;67.90;;;;;;10498135;28;20040;-47
2021/09/22 23:37:40;;;;;;;6.35;4.15;;;19.30;67.70;;;;;;10498496;28;20036;-53
2021/09/22 23:42:41;;;;;;;5.05;3.80;;;19.30;67.90;;;;;;10496338;28;20119;-50
2021/09/22 23:47:42;;;;;;;4.80;4.30;;;19.30;68.00;;;;;;10497365;28;20029;-48
2021/09/22 23:52:43;;;;;;;5.30;4.22;;;19.30;67.60;;;;;;10497655;28;20043;-47
2021/09/22 23:57:44;;;;;;;5.40;4.13;;;19.30;67.60;;;;;;10495647;28;20046;-47
